createdAt,value
2017-06-22T00:03:58.826Z,80.60
2017-06-22T00:08:55.561Z,80.99
2017-06-22T00:13:52.065Z,81.27
2017-06-22T00:18:47.770Z,81.85
2017-06-22T00:23:43.960Z,82.39
2017-06-22T00:28:39.720Z,82.29
2017-06-22T00:33:36.627Z,81.91
2017-06-22T00:38:33.164Z,81.91
2017-06-22T00:43:28.736Z,82.29
2017-06-22T00:48:24.550Z,82.87
2017-06-22T00:53:20.450Z,84.47
2017-06-22T00:58:17.360Z,84.72
2017-06-22T01:03:13.500Z,85.39
2017-06-22T01:08:10.067Z,86.45
2017-06-22T01:13:05.526Z,86.99
2017-06-22T01:18:02.104Z,85.87
2017-06-22T01:22:58.028Z,86.83
2017-06-22T01:27:54.366Z,86.89
2017-06-22T01:32:50.217Z,87.46
2017-06-22T01:37:46.508Z,86.26
2017-06-22T01:42:42.448Z,86.89
2017-06-22T01:47:39.432Z,86.12
2017-06-22T01:52:36.406Z,86.99
2017-06-22T01:57:32.096Z,88.19
2017-06-22T02:02:27.815Z,88.87
2017-06-22T02:07:23.548Z,88.67
2017-06-22T02:12:20.436Z,89.44
2017-06-22T02:17:16.232Z,89.11
2017-06-22T02:22:11.883Z,88.77
2017-06-22T02:27:08.319Z,90.07
2017-06-22T02:32:04.108Z,90.65
2017-06-22T02:36:59.901Z,91.52
2017-06-22T02:41:55.874Z,90.17
2017-06-22T02:46:52.204Z,89.92
2017-06-22T02:51:48.146Z,88.57
2017-06-22T02:56:45.167Z,87.66
2017-06-22T03:01:41.809Z,87.85
2017-06-22T03:06:38.525Z,87.08
2017-06-22T03:11:34.099Z,86.41
2017-06-22T03:16:30.099Z,86.41
2017-06-22T03:21:26.016Z,86.31
2017-06-22T03:26:23.009Z,86.89
2017-06-22T03:31:18.465Z,86.79
2017-06-22T03:36:14.717Z,87.76
2017-06-22T03:41:11.392Z,88.24
2017-06-22T03:46:08.456Z,87.27
2017-06-22T03:51:04.821Z,87.46
2017-06-22T03:56:01.720Z,88.19
2017-06-22T04:00:57.472Z,87.95
2017-06-22T04:05:53.536Z,87.46
2017-06-22T04:10:51.887Z,87.56
2017-06-22T04:15:48.353Z,86.89
2017-06-22T04:20:44.156Z,86.79
2017-06-22T04:25:39.962Z,87.56
2017-06-22T04:30:36.050Z,87.95
2017-06-22T04:35:31.870Z,87.46
2017-06-22T04:40:28.071Z,86.07
2017-06-22T04:45:25.467Z,84.61
2017-06-22T04:50:21.496Z,84.22
2017-06-22T04:55:17.970Z,82.67
2017-06-22T05:00:14.625Z,80.87
2017-06-22T05:05:12.135Z,79.47
2017-06-22T05:10:07.903Z,80.05
2017-06-22T05:15:03.538Z,81.26
2017-06-22T05:19:59.311Z,83.83
2017-06-22T05:24:55.133Z,82.86
2017-06-22T05:29:50.970Z,83.05
2017-06-22T05:34:47.515Z,81.01
2017-06-22T05:39:45.167Z,78.38
2017-06-22T05:44:41.471Z,76.04
2017-06-22T05:49:39.002Z,73.08
2017-06-22T05:54:36.142Z,72.09
2017-06-22T05:59:32.099Z,70.92
2017-06-22T06:04:29.828Z,73.08
2017-06-22T06:09:25.050Z,75.02
2017-06-22T06:14:20.926Z,75.37
2017-06-22T06:19:17.186Z,76.24
2017-06-22T06:24:13.147Z,76.72
2017-06-22T06:29:08.989Z,75.75
2017-06-22T06:34:05.967Z,75.85
2017-06-22T06:39:01.515Z,75.31
2017-06-22T06:43:57.779Z,75.60
2017-06-22T06:48:53.891Z,75.34
2017-06-22T06:53:50.863Z,75.24
2017-06-22T06:58:47.117Z,74.02
2017-06-22T07:03:43.415Z,73.73
2017-06-22T07:08:40.564Z,72.61
2017-06-22T07:13:36.294Z,72.12
2017-06-22T07:18:32.395Z,70.96
2017-06-22T07:23:29.934Z,70.21
2017-06-22T07:28:26.870Z,69.18
2017-06-22T07:33:23.028Z,67.96
2017-06-22T07:38:19.435Z,67.08
2017-06-22T07:43:15.849Z,64.91
2017-06-22T07:48:12.466Z,64.75
2017-06-22T07:53:09.502Z,62.64
2017-06-22T07:58:08.771Z,60.66
2017-06-22T08:03:05.312Z,59.03
2017-06-22T08:08:02.566Z,57.43
2017-06-22T08:13:00.020Z,55.80
2017-06-22T08:17:55.650Z,56.68
2017-06-22T08:22:52.032Z,56.75
2017-06-22T08:27:50.180Z,54.46
2017-06-22T08:32:48.665Z,51.98
2017-06-22T08:37:45.836Z,51.32
2017-06-22T08:42:42.815Z,50.20
2017-06-22T08:47:39.551Z,48.94
2017-06-22T08:52:37.404Z,48.68
2017-06-22T08:57:33.638Z,47.89
2017-06-22T09:02:30.500Z,48.55
2017-06-22T09:07:26.612Z,48.75
2017-06-22T09:12:22.837Z,49.04
2017-06-22T09:17:19.410Z,46.74
2017-06-22T09:22:15.715Z,46.47
2017-06-22T09:27:12.349Z,47.03
2017-06-22T09:32:08.669Z,46.56
2017-06-22T09:37:04.661Z,45.31
2017-06-22T09:42:00.891Z,44.33
2017-06-22T09:46:56.972Z,44.80
2017-06-22T09:51:53.291Z,43.05
2017-06-22T09:56:49.496Z,41.80
2017-06-22T10:01:47.940Z,41.82
2017-06-22T10:06:43.907Z,41.98
2017-06-22T10:11:38.825Z,44.29
2017-06-22T10:16:36.297Z,42.98
2017-06-22T10:21:32.878Z,43.37
2017-06-22T10:26:29.184Z,44.04
2017-06-22T10:31:25.846Z,44.70
2017-06-22T10:36:22.598Z,45.59
2017-06-22T10:41:19.866Z,45.12
2017-06-22T10:46:15.643Z,46.49
2017-06-22T10:51:11.765Z,47.45
2017-06-22T10:56:07.358Z,48.03
2017-06-22T11:01:03.835Z,48.92
2017-06-22T11:06:00.495Z,47.96
2017-06-22T11:10:57.149Z,47.30
2017-06-22T11:15:54.053Z,47.03
2017-06-22T11:20:50.222Z,48.74
2017-06-22T11:25:46.348Z,49.04
2017-06-22T11:30:41.944Z,49.11
2017-06-22T11:35:38.643Z,49.60
2017-06-22T11:40:35.274Z,47.67
2017-06-22T11:45:32.046Z,46.61
2017-06-22T11:50:29.382Z,46.63
2017-06-22T11:55:26.111Z,44.91
2017-06-22T12:00:23.077Z,45.01
2017-06-22T12:05:20.751Z,44.22
2017-06-22T12:10:17.084Z,42.94
2017-06-22T12:15:13.448Z,43.12
2017-06-22T12:20:09.103Z,42.82
2017-06-22T12:25:05.127Z,42.92
2017-06-22T12:30:01.106Z,42.61
2017-06-22T12:34:57.479Z,41.43
2017-06-22T12:39:53.694Z,40.88
2017-06-22T12:44:48.638Z,42.16
2017-06-22T12:49:45.895Z,40.96
2017-06-22T12:54:41.909Z,41.08
2017-06-22T12:59:37.925Z,40.69
2017-06-22T13:04:34.047Z,40.47
2017-06-22T13:09:29.461Z,40.35
2017-06-22T13:14:25.611Z,40.55
2017-06-22T13:19:21.742Z,40.19
2017-06-22T13:24:18.860Z,40.27
2017-06-22T13:29:15.366Z,38.88
2017-06-22T13:34:10.630Z,38.88
2017-06-22T13:39:07.500Z,38.80
2017-06-22T13:44:03.039Z,40.06
2017-06-22T13:48:58.875Z,40.53
2017-06-22T13:53:54.985Z,40.33
2017-06-22T13:58:51.764Z,40.13
2017-06-22T14:03:48.259Z,40.31
2017-06-22T14:08:44.137Z,41.09
2017-06-22T14:13:39.345Z,41.19
2017-06-22T14:18:34.961Z,41.68
2017-06-22T14:23:30.939Z,42.55
2017-06-22T14:28:26.665Z,41.76
2017-06-22T14:33:22.626Z,41.96
2017-06-22T14:38:18.681Z,42.25
2017-06-22T14:43:16.057Z,42.65
2017-06-22T14:48:13.025Z,42.74
2017-06-22T14:53:09.687Z,44.12
2017-06-22T14:58:05.393Z,44.68
2017-06-22T15:03:01.427Z,44.29
2017-06-22T15:07:57.585Z,42.82
2017-06-22T15:12:53.431Z,43.04
2017-06-22T15:17:50.602Z,44.12
2017-06-22T15:22:46.412Z,43.12
2017-06-22T15:27:42.710Z,42.84
2017-06-22T15:32:38.861Z,42.05
2017-06-22T15:37:35.769Z,42.25
2017-06-22T15:42:31.755Z,41.05
2017-06-22T15:47:27.754Z,42.02
2017-06-22T15:52:24.616Z,40.63
2017-06-22T15:57:20.099Z,37.27
2017-06-22T16:02:17.277Z,35.13
2017-06-22T16:07:13.061Z,35.03
2017-06-22T16:12:09.492Z,35.81
2017-06-22T16:17:07.224Z,35.40
2017-06-22T16:22:02.455Z,37.35
2017-06-22T16:26:58.401Z,36.67
2017-06-22T16:31:54.635Z,40.09
2017-06-22T16:36:50.558Z,40.37
2017-06-22T16:41:47.722Z,40.56
2017-06-22T16:46:44.226Z,39.98
2017-06-22T16:51:41.960Z,39.88
2017-06-22T16:56:38.114Z,38.89
2017-06-22T17:01:34.123Z,39.29
2017-06-22T17:06:31.030Z,38.01
2017-06-22T17:11:27.527Z,39.16
2017-06-22T17:16:23.254Z,38.84
2017-06-22T17:21:19.613Z,43.04
2017-06-22T17:26:16.679Z,45.65
2017-06-22T17:31:12.351Z,46.63
2017-06-22T17:36:08.855Z,47.90
2017-06-22T17:41:04.609Z,48.24
2017-06-22T17:46:00.442Z,49.12
2017-06-22T17:50:56.486Z,49.80
2017-06-22T17:55:52.357Z,49.49
2017-06-22T18:00:48.339Z,49.07
2017-06-22T18:05:44.359Z,46.93
2017-06-22T18:10:42.186Z,46.91
2017-06-22T18:15:38.814Z,46.32
2017-06-22T18:20:34.390Z,47.27
2017-06-22T18:25:31.220Z,47.37
2017-06-22T18:30:26.979Z,47.66
2017-06-22T18:35:22.976Z,52.40
2017-06-22T18:40:18.722Z,59.03
2017-06-22T18:45:14.157Z,63.91
2017-06-22T18:50:09.794Z,68.34
2017-06-22T18:55:06.605Z,70.05
2017-06-22T19:00:02.253Z,70.34
2017-06-22T19:04:59.336Z,71.47
2017-06-22T19:09:55.848Z,72.05
2017-06-22T19:14:51.336Z,71.28
2017-06-22T19:19:47.622Z,73.75
2017-06-22T19:24:43.286Z,74.88
2017-06-22T19:29:38.904Z,76.33
2017-06-22T19:34:34.657Z,76.10
2017-06-22T19:39:31.821Z,77.51
2017-06-22T19:44:27.310Z,78.29
2017-06-22T19:49:23.109Z,80.08
2017-06-22T19:54:19.085Z,80.57
2017-06-22T19:59:16.631Z,81.59
2017-06-22T20:04:12.082Z,82.26
2017-06-22T20:09:07.960Z,83.39
2017-06-22T20:14:04.689Z,82.94
2017-06-22T20:19:00.799Z,82.46
2017-06-22T20:23:56.735Z,83.77
2017-06-22T20:28:52.468Z,84.06
2017-06-22T20:33:48.284Z,84.83
2017-06-22T20:38:44.379Z,84.35
2017-06-22T20:43:40.302Z,84.54
2017-06-22T20:48:36.045Z,84.54
2017-06-22T20:53:32.357Z,84.79
2017-06-22T20:58:29.272Z,84.41
2017-06-22T21:03:24.714Z,84.69
2017-06-22T21:08:20.672Z,84.59
2017-06-22T21:13:17.601Z,84.21
2017-06-22T21:18:13.599Z,83.53
2017-06-22T21:23:09.863Z,83.34
2017-06-22T21:28:05.844Z,83.25
2017-06-22T21:33:02.078Z,83.15
2017-06-22T21:37:57.968Z,82.57
2017-06-22T21:42:54.199Z,83.34
2017-06-22T21:47:50.184Z,82.82
2017-06-22T21:52:47.003Z,82.82
2017-06-22T21:57:43.203Z,82.53
2017-06-22T22:02:39.171Z,82.39
2017-06-22T22:07:35.328Z,82.49
2017-06-22T22:12:31.206Z,82.14
2017-06-22T22:17:27.364Z,82.92
2017-06-22T22:22:23.554Z,83.74
2017-06-22T22:27:20.387Z,83.78
2017-06-22T22:32:16.438Z,83.45
2017-06-22T22:37:12.302Z,82.97
2017-06-22T22:42:08.621Z,82.29
2017-06-22T22:47:04.409Z,82.20
2017-06-22T22:52:00.237Z,82.49
2017-06-22T22:56:56.096Z,82.26
2017-06-22T23:01:52.299Z,82.39
2017-06-22T23:06:49.284Z,83.31
2017-06-22T23:11:45.994Z,83.61
2017-06-22T23:16:41.631Z,83.70
2017-06-22T23:21:37.512Z,83.51
2017-06-22T23:26:34.400Z,83.99
2017-06-22T23:31:30.283Z,84.56
2017-06-22T23:36:26.742Z,84.81
2017-06-22T23:41:22.853Z,85.78
2017-06-22T23:46:18.803Z,84.72
2017-06-22T23:51:15.872Z,85.78
2017-06-22T23:56:12.357Z,85.58
